createdAt,value
2018-12-08T19:07:48.806Z,13.20
2018-12-08T19:13:52.943Z,13.50
2018-12-08T19:19:57.915Z,14.20
2018-12-08T19:26:02.400Z,13.90
2018-12-08T19:32:06.930Z,13.70
2018-12-08T19:38:12.127Z,14.10
2018-12-08T19:44:17.991Z,14.10
2018-12-08T19:50:21.800Z,14.10
2018-12-08T19:56:26.818Z,14.50
2018-12-08T20:02:31.960Z,13.60
2018-12-08T20:08:37.262Z,14.00
2018-12-08T20:14:41.161Z,14.80
2018-12-08T20:20:44.633Z,14.80
2018-12-08T20:26:49.792Z,14.50
2018-12-08T20:32:54.930Z,14.60
2018-12-08T20:38:58.930Z,14.00
2018-12-08T20:45:02.364Z,14.60
2018-12-08T20:51:06.336Z,15.30
2018-12-08T20:57:11.112Z,14.50
2018-12-08T21:03:14.648Z,14.90
2018-12-08T21:09:19.098Z,14.90
2018-12-08T21:15:22.733Z,15.00
2018-12-08T21:21:26.496Z,14.70
2018-12-08T21:27:29.965Z,14.50
2018-12-08T21:33:33.552Z,14.10
2018-12-08T21:39:37.963Z,14.50
2018-12-08T21:45:41.540Z,15.50
2018-12-08T21:51:46.168Z,16.10
2018-12-08T21:57:50.647Z,16.10
2018-12-08T22:03:54.117Z,16.50
2018-12-08T22:09:57.682Z,16.60
2018-12-08T22:16:03.206Z,17.00
2018-12-08T22:22:06.662Z,17.00
2018-12-08T22:28:10.132Z,17.10
2018-12-08T22:34:14.815Z,16.90
2018-12-08T22:40:19.324Z,16.70
2018-12-08T22:46:22.775Z,16.60
2018-12-08T22:52:26.284Z,16.60
2018-12-08T22:58:30.632Z,16.50
2018-12-08T23:04:36.389Z,16.70
2018-12-08T23:10:42.507Z,15.70
2018-12-08T23:16:47.186Z,15.70
2018-12-08T23:22:51.757Z,15.90
2018-12-08T23:28:56.344Z,15.40
2018-12-08T23:35:01.047Z,14.50
2018-12-08T23:41:04.572Z,13.70
2018-12-08T23:47:10.779Z,13.30
2018-12-08T23:53:14.583Z,13.20
2018-12-08T23:59:19.625Z,13.00
